sensor_id;sensor_type;location;lat;lon;timestamp;pressure;altitude;pressure_sealevel;temperature;humidity
37792;BME280;29527;55.766;37.570;2023-10-19T00:00:40;98821.66;;;7.09;67.78
37792;BME280;29527;55.766;37.570;2023-10-19T00:03:12;98825.16;;;7.09;68.04
37792;BME280;29527;55.766;37.570;2023-10-19T00:05:38;98824.56;;;7.06;67.94
37792;BME280;29527;55.766;37.570;2023-10-19T00:08:05;98818.75;;;7.12;67.50
37792;BME280;29527;55.766;37.570;2023-10-19T00:10:45;98832.50;;;7.17;67.84
37792;BME280;29527;55.766;37.570;2023-10-19T00:13:14;98817.88;;;7.11;67.34
37792;BME280;29527;55.766;37.570;2023-10-19T00:15:41;98824.31;;;7.09;67.51
37792;BME280;29527;55.766;37.570;2023-10-19T00:18:13;98817.16;;;7.09;67.15
37792;BME280;29527;55.766;37.570;2023-10-19T00:20:43;98813.47;;;7.00;67.51
37792;BME280;29527;55.766;37.570;2023-10-19T00:23:20;98826.13;;;7.08;67.59
37792;BME280;29527;55.766;37.570;2023-10-19T00:26:01;98821.66;;;7.09;67.52
37792;BME280;29527;55.766;37.570;2023-10-19T00:28:42;98825.16;;;7.09;67.20
37792;BME280;29527;55.766;37.570;2023-10-19T00:31:11;98814.28;;;7.01;67.35
37792;BME280;29527;55.766;37.570;2023-10-19T00:33:37;98823.13;;;7.01;67.43
37792;BME280;29527;55.766;37.570;2023-10-19T00:36:05;98821.69;;;6.97;67.90
37792;BME280;29527;55.766;37.570;2023-10-19T00:38:37;98811.38;;;7.04;67.65
37792;BME280;29527;55.766;37.570;2023-10-19T00:41:13;98814.28;;;7.01;67.91
37792;BME280;29527;55.766;37.570;2023-10-19T00:43:43;98807.41;;;6.98;67.68
37792;BME280;29527;55.766;37.570;2023-10-19T00:46:13;98822.28;;;7.01;67.64
37792;BME280;29527;55.766;37.570;2023-10-19T00:48:54;98813.31;;;7.02;67.73
37792;BME280;29527;55.766;37.570;2023-10-19T00:51:29;98823.13;;;7.01;67.59
37792;BME280;29527;55.766;37.570;2023-10-19T00:53:58;98816.50;;;6.96;67.69
37792;BME280;29527;55.766;37.570;2023-10-19T00:56:27;98822.53;;;6.98;67.25
37792;BME280;29527;55.766;37.570;2023-10-19T00:58:56;98809.59;;;6.93;67.11
37792;BME280;29527;55.766;37.570;2023-10-19T01:01:33;98827.25;;;6.94;67.34
37792;BME280;29527;55.766;37.570;2023-10-19T01:04:02;98814.91;;;6.93;67.39
37792;BME280;29527;55.766;37.570;2023-10-19T01:06:29;98779.16;;;6.74;67.51
37792;BME280;29527;55.766;37.570;2023-10-19T01:08:57;98823.50;;;6.97;67.50
37792;BME280;29527;55.766;37.570;2023-10-19T01:11:23;98807.66;;;6.95;67.19
37792;BME280;29527;55.766;37.570;2023-10-19T01:13:54;98813.59;;;6.99;67.13
37792;BME280;29527;55.766;37.570;2023-10-19T01:16:20;98811.28;;;6.94;67.14
37792;BME280;29527;55.766;37.570;2023-10-19T01:18:52;98818.38;;;7.05;67.22
37792;BME280;29527;55.766;37.570;2023-10-19T01:21:24;98824.56;;;7.06;67.02
37792;BME280;29527;55.766;37.570;2023-10-19T01:24:09;98818.13;;;7.08;67.18
37792;BME280;29527;55.766;37.570;2023-10-19T01:26:37;98808.88;;;7.02;66.79
37792;BME280;29527;55.766;37.570;2023-10-19T01:29:03;98804.72;;;6.98;66.80
37792;BME280;29527;55.766;37.570;2023-10-19T01:31:41;98797.50;;;7.00;67.20
37792;BME280;29527;55.766;37.570;2023-10-19T01:34:30;98803.53;;;7.02;67.07
37792;BME280;29527;55.766;37.570;2023-10-19T01:36:55;98807.41;;;6.98;67.25
37792;BME280;29527;55.766;37.570;2023-10-19T01:39:21;98807.41;;;6.98;67.45
37792;BME280;29527;55.766;37.570;2023-10-19T01:41:47;98804.03;;;6.96;67.28
37792;BME280;29527;55.766;37.570;2023-10-19T01:44:16;98799.56;;;6.97;67.10
37792;BME280;29527;55.766;37.570;2023-10-19T01:46:42;98808.78;;;6.93;67.29
37792;BME280;29527;55.766;37.570;2023-10-19T01:49:11;98812.25;;;6.93;67.22
37792;BME280;29527;55.766;37.570;2023-10-19T01:51:36;98809.59;;;6.93;67.34
37792;BME280;29527;55.766;37.570;2023-10-19T01:54:07;98772.16;;;6.73;67.15
37792;BME280;29527;55.766;37.570;2023-10-19T01:56:33;98818.28;;;6.95;67.01
37792;BME280;29527;55.766;37.570;2023-10-19T01:59:02;98806.22;;;6.91;67.48
37792;BME280;29527;55.766;37.570;2023-10-19T02:01:29;98807.19;;;6.90;67.69
37792;BME280;29527;55.766;37.570;2023-10-19T02:04:01;98809.59;;;6.93;67.73
37792;BME280;29527;55.766;37.570;2023-10-19T02:06:28;98806.94;;;6.93;67.27
37792;BME280;29527;55.766;37.570;2023-10-19T02:09:06;98771.06;;;6.76;67.16
37792;BME280;29527;55.766;37.570;2023-10-19T02:11:40;98794.16;;;6.87;67.08
37792;BME280;29527;55.766;37.570;2023-10-19T02:14:11;98806.97;;;6.82;67.37
37792;BME280;29527;55.766;37.570;2023-10-19T02:16:41;98808.94;;;6.80;67.55
37792;BME280;29527;55.766;37.570;2023-10-19T02:19:07;98807.34;;;6.77;67.51
37792;BME280;29527;55.766;37.570;2023-10-19T02:21:32;98777.06;;;6.57;67.44
37792;BME280;29527;55.766;37.570;2023-10-19T02:24:03;98804.22;;;6.72;68.01
37792;BME280;29527;55.766;37.570;2023-10-19T02:26:29;98803.38;;;6.71;67.86
37792;BME280;29527;55.766;37.570;2023-10-19T02:28:56;98798.75;;;6.73;67.98
37792;BME280;29527;55.766;37.570;2023-10-19T02:31:24;98800.44;;;6.74;67.72
37792;BME280;29527;55.766;37.570;2023-10-19T02:33:52;98812.56;;;6.79;67.86
37792;BME280;29527;55.766;37.570;2023-10-19T02:36:23;98789.94;;;6.73;67.50
37792;BME280;29527;55.766;37.570;2023-10-19T02:38:49;98788.50;;;6.69;67.92
37792;BME280;29527;55.766;37.570;2023-10-19T02:41:18;98781.50;;;6.56;67.96
37792;BME280;29527;55.766;37.570;2023-10-19T02:43:47;98815.69;;;6.72;67.95
37792;BME280;29527;55.766;37.570;2023-10-19T02:46:17;98768.13;;;6.46;67.96
37792;BME280;29527;55.766;37.570;2023-10-19T02:48:46;98808.44;;;6.74;68.43
37792;BME280;29527;55.766;37.570;2023-10-19T02:51:15;98811.34;;;6.71;67.99
37792;BME280;29527;55.766;37.570;2023-10-19T02:53:40;98815.84;;;6.71;68.17
37792;BME280;29527;55.766;37.570;2023-10-19T02:56:15;98805.78;;;6.74;68.23
37792;BME280;29527;55.766;37.570;2023-10-19T02:58:46;98805.44;;;6.68;68.42
37792;BME280;29527;55.766;37.570;2023-10-19T03:01:20;98806.53;;;6.77;68.39
37792;BME280;29527;55.766;37.570;2023-10-19T03:03:54;98771.28;;;6.52;68.16
37792;BME280;29527;55.766;37.570;2023-10-19T03:06:25;98799.50;;;6.75;68.39
37792;BME280;29527;55.766;37.570;2023-10-19T03:08:51;98794.41;;;6.72;68.42
37792;BME280;29527;55.766;37.570;2023-10-19T03:11:24;98790.78;;;6.73;68.34
37792;BME280;29527;55.766;37.570;2023-10-19T03:13:50;98800.94;;;6.80;68.20
37792;BME280;29527;55.766;37.570;2023-10-19T03:16:18;98799.00;;;6.82;68.13
37792;BME280;29527;55.766;37.570;2023-10-19T03:18:45;98800.09;;;6.79;68.21
37792;BME280;29527;55.766;37.570;2023-10-19T03:21:11;98787.41;;;6.71;68.50
37792;BME280;29527;55.766;37.570;2023-10-19T03:23:36;98801.78;;;6.80;68.15
37792;BME280;29527;55.766;37.570;2023-10-19T03:26:03;98800.81;;;6.81;68.20
37792;BME280;29527;55.766;37.570;2023-10-19T03:28:50;98804.19;;;6.83;67.93
37792;BME280;29527;55.766;37.570;2023-10-19T03:31:23;98803.69;;;6.89;67.75
37792;BME280;29527;55.766;37.570;2023-10-19T03:33:52;98803.94;;;6.86;67.77
37792;BME280;29527;55.766;37.570;2023-10-19T03:36:22;98803.09;;;6.86;68.13
37792;BME280;29527;55.766;37.570;2023-10-19T03:38:49;98778.94;;;6.78;67.76
37792;BME280;29527;55.766;37.570;2023-10-19T03:41:19;98798.59;;;6.86;67.43
37792;BME280;29527;55.766;37.570;2023-10-19T03:43:53;98761.47;;;6.64;67.54
37792;BME280;29527;55.766;37.570;2023-10-19T03:46:20;98801.41;;;6.85;67.59
37792;BME280;29527;55.766;37.570;2023-10-19T03:48:58;98805.38;;;6.91;67.56
37792;BME280;29527;55.766;37.570;2023-10-19T03:51:28;98806.72;;;6.85;67.05
37792;BME280;29527;55.766;37.570;2023-10-19T03:54:05;98812.88;;;6.85;67.26
37792;BME280;29527;55.766;37.570;2023-10-19T03:56:45;98800.81;;;6.81;67.20
37792;BME280;29527;55.766;37.570;2023-10-19T03:59:13;98811.09;;;6.86;67.19
37792;BME280;29527;55.766;37.570;2023-10-19T04:01:41;98811.09;;;6.86;67.35
37792;BME280;29527;55.766;37.570;2023-10-19T04:04:12;98773.03;;;6.63;67.19
37792;BME280;29527;55.766;37.570;2023-10-19T04:06:39;98804.78;;;6.87;67.02
37792;BME280;29527;55.766;37.570;2023-10-19T04:09:05;98808.41;;;6.86;66.98
37792;BME280;29527;55.766;37.570;2023-10-19T04:11:34;98805.28;;;6.81;67.28
37792;BME280;29527;55.766;37.570;2023-10-19T04:14:16;98801.66;;;6.82;67.19
37792;BME280;29527;55.766;37.570;2023-10-19T04:16:43;98812.31;;;6.82;67.63
37792;BME280;29527;55.766;37.570;2023-10-19T04:19:14;98810.38;;;6.84;67.23
37792;BME280;29527;55.766;37.570;2023-10-19T04:21:40;98814.72;;;6.85;67.31
37792;BME280;29527;55.766;37.570;2023-10-19T04:24:09;98781.63;;;6.66;67.18
37792;BME280;29527;55.766;37.570;2023-10-19T04:26:36;98813.75;;;6.86;67.16
37792;BME280;29527;55.766;37.570;2023-10-19T04:29:03;98815.69;;;6.84;67.49
37792;BME280;29527;55.766;37.570;2023-10-19T04:31:36;98814.47;;;6.88;67.13
37792;BME280;29527;55.766;37.570;2023-10-19T04:34:03;98815.44;;;6.87;66.98
37792;BME280;29527;55.766;37.570;2023-10-19T04:36:37;98823.88;;;6.92;66.74
37792;BME280;29527;55.766;37.570;2023-10-19T04:39:05;98805.66;;;6.87;66.36
37792;BME280;29527;55.766;37.570;2023-10-19T04:41:30;98816.75;;;6.93;66.41
37792;BME280;29527;55.766;37.570;2023-10-19T04:43:56;98822.78;;;6.95;66.30
37792;BME280;29527;55.766;37.570;2023-10-19T04:46:23;98820.00;;;6.96;66.75
37792;BME280;29527;55.766;37.570;2023-10-19T04:48:49;98810.81;;;7.00;66.15
37792;BME280;29527;55.766;37.570;2023-10-19T04:51:15;98816.69;;;7.04;65.52
37792;BME280;29527;55.766;37.570;2023-10-19T04:53:42;98806.19;;;7.02;65.50
37792;BME280;29527;55.766;37.570;2023-10-19T04:56:08;98818.84;;;7.10;65.61
37792;BME280;29527;55.766;37.570;2023-10-19T04:58:35;98813.94;;;7.06;65.75
37792;BME280;29527;55.766;37.570;2023-10-19T05:01:01;98824.78;;;7.14;65.37
37792;BME280;29527;55.766;37.570;2023-10-19T05:03:29;98809.31;;;7.08;65.44
37792;BME280;29527;55.766;37.570;2023-10-19T05:05:55;98821.13;;;7.15;65.30
37792;BME280;29527;55.766;37.570;2023-10-19T05:08:22;98815.56;;;7.18;65.44
37792;BME280;29527;55.766;37.570;2023-10-19T05:10:52;98822.31;;;7.22;65.15
37792;BME280;29527;55.766;37.570;2023-10-19T05:13:18;98811.91;;;7.19;65.04
37792;BME280;29527;55.766;37.570;2023-10-19T05:15:44;98813.13;;;7.26;64.75
37792;BME280;29527;55.766;37.570;2023-10-19T05:18:10;98810.31;;;7.28;64.67
37792;BME280;29527;55.766;37.570;2023-10-19T05:20:35;98819.03;;;7.30;64.72
37792;BME280;29527;55.766;37.570;2023-10-19T05:23:09;98822.13;;;7.35;65.29
37792;BME280;29527;55.766;37.570;2023-10-19T05:25:35;98825.06;;;7.32;64.87
37792;BME280;29527;55.766;37.570;2023-10-19T05:28:07;98833.13;;;7.42;64.61
37792;BME280;29527;55.766;37.570;2023-10-19T05:30:36;98821.75;;;7.40;64.50
37792;BME280;29527;55.766;37.570;2023-10-19T05:33:01;98822.03;;;7.37;64.68
37792;BME280;29527;55.766;37.570;2023-10-19T05:35:28;98837.75;;;7.40;64.59
37792;BME280;29527;55.766;37.570;2023-10-19T05:37:55;98830.63;;;7.40;64.80
37792;BME280;29527;55.766;37.570;2023-10-19T05:40:24;98830.63;;;7.40;64.65
37792;BME280;29527;55.766;37.570;2023-10-19T05:42:57;98821.03;;;7.38;64.01
37792;BME280;29527;55.766;37.570;2023-10-19T05:45:24;98840.63;;;7.48;64.12
37792;BME280;29527;55.766;37.570;2023-10-19T05:47:50;98795.69;;;7.22;63.96
37792;BME280;29527;55.766;37.570;2023-10-19T05:50:15;98828.25;;;7.47;63.94
37792;BME280;29527;55.766;37.570;2023-10-19T05:52:42;98836.00;;;7.50;64.44
37792;BME280;29527;55.766;37.570;2023-10-19T05:55:09;98844.00;;;7.50;64.41
37792;BME280;29527;55.766;37.570;2023-10-19T05:57:37;98847.50;;;7.51;63.83
37792;BME280;29527;55.766;37.570;2023-10-19T06:00:07;98838.41;;;7.53;64.38
37792;BME280;29527;55.766;37.570;2023-10-19T06:02:43;98849.41;;;7.60;64.49
37792;BME280;29527;55.766;37.570;2023-10-19T06:05:09;98840.81;;;7.56;64.49
37792;BME280;29527;55.766;37.570;2023-10-19T06:07:35;98839.13;;;7.55;64.33
37792;BME280;29527;55.766;37.570;2023-10-19T06:10:01;98837.91;;;7.59;64.37
37792;BME280;29527;55.766;37.570;2023-10-19T06:12:31;98834.50;;;7.57;63.97
37792;BME280;29527;55.766;37.570;2023-10-19T06:14:56;98838.75;;;7.60;63.86
37792;BME280;29527;55.766;37.570;2023-10-19T06:17:22;98836.31;;;7.57;63.99
37792;BME280;29527;55.766;37.570;2023-10-19T06:19:49;98837.03;;;7.59;63.85
37792;BME280;29527;55.766;37.570;2023-10-19T06:22:14;98844.66;;;7.64;63.89
37792;BME280;29527;55.766;37.570;2023-10-19T06:24:42;98834.50;;;7.57;63.51
37792;BME280;29527;55.766;37.570;2023-10-19T06:27:10;98849.16;;;7.63;63.69
37792;BME280;29527;55.766;37.570;2023-10-19T06:29:35;98840.44;;;7.61;63.76
37792;BME280;29527;55.766;37.570;2023-10-19T06:32:01;98844.78;;;7.62;63.45
37792;BME280;29527;55.766;37.570;2023-10-19T06:34:26;98845.09;;;7.69;63.04
37792;BME280;29527;55.766;37.570;2023-10-19T06:36:52;98838.56;;;7.73;63.10
37792;BME280;29527;55.766;37.570;2023-10-19T06:39:19;98843.53;;;7.87;62.40
37792;BME280;29527;55.766;37.570;2023-10-19T06:41:46;98850.50;;;8.00;61.91
37792;BME280;29527;55.766;37.570;2023-10-19T06:44:13;98836.75;;;8.04;61.49
37792;BME280;29527;55.766;37.570;2023-10-19T06:46:39;98830.66;;;8.14;60.72
37792;BME280;29527;55.766;37.570;2023-10-19T06:49:05;98839.41;;;8.26;60.29
37792;BME280;29527;55.766;37.570;2023-10-19T06:51:31;98804.66;;;8.06;60.02
37792;BME280;29527;55.766;37.570;2023-10-19T06:53:58;98835.94;;;8.35;59.58
37792;BME280;29527;55.766;37.570;2023-10-19T06:56:24;98832.28;;;8.36;59.76
37792;BME280;29527;55.766;37.570;2023-10-19T06:58:50;98833.56;;;8.42;59.85
37792;BME280;29527;55.766;37.570;2023-10-19T07:01:15;98835.59;;;8.50;60.02
37792;BME280;29527;55.766;37.570;2023-10-19T07:03:48;98850.50;;;8.62;60.20
37792;BME280;29527;55.766;37.570;2023-10-19T07:06:13;98823.00;;;8.61;59.89
37792;BME280;29527;55.766;37.570;2023-10-19T07:08:42;98811.66;;;8.69;59.43
37792;BME280;29527;55.766;37.570;2023-10-19T07:11:07;98828.38;;;8.91;58.87
37792;BME280;29527;55.766;37.570;2023-10-19T07:13:33;98838.69;;;9.05;58.56
37792;BME280;29527;55.766;37.570;2023-10-19T07:15:59;98851.19;;;9.15;57.95
37792;BME280;29527;55.766;37.570;2023-10-19T07:18:25;98846.00;;;9.13;58.37
37792;BME280;29527;55.766;37.570;2023-10-19T07:20:51;98858.50;;;9.13;58.68
37792;BME280;29527;55.766;37.570;2023-10-19T07:23:18;98834.31;;;8.95;58.01
37792;BME280;29527;55.766;37.570;2023-10-19T07:25:46;98851.72;;;8.99;57.94
37792;BME280;29527;55.766;37.570;2023-10-19T07:28:15;98856.53;;;8.95;58.42
37792;BME280;29527;55.766;37.570;2023-10-19T07:30:42;98857.22;;;8.97;58.22
37792;BME280;29527;55.766;37.570;2023-10-19T07:33:09;98860.44;;;8.81;58.27
37792;BME280;29527;55.766;37.570;2023-10-19T07:35:36;98849.16;;;8.78;59.07
37792;BME280;29527;55.766;37.570;2023-10-19T07:38:08;98865.34;;;8.86;59.54
37792;BME280;29527;55.766;37.570;2023-10-19T07:40:35;98846.34;;;8.79;59.14
37792;BME280;29527;55.766;37.570;2023-10-19T07:43:01;98857.91;;;8.89;59.02
37792;BME280;29527;55.766;37.570;2023-10-19T07:45:27;98863.38;;;8.88;58.59
37792;BME280;29527;55.766;37.570;2023-10-19T07:47:52;98859.00;;;8.87;58.80
37792;BME280;29527;55.766;37.570;2023-10-19T07:50:19;98830.59;;;8.66;58.82
37792;BME280;29527;55.766;37.570;2023-10-19T07:52:49;98872.09;;;8.90;59.01
37792;BME280;29527;55.766;37.570;2023-10-19T07:55:19;98866.06;;;8.98;58.90
37792;BME280;29527;55.766;37.570;2023-10-19T07:57:45;98857.22;;;8.97;58.50
37792;BME280;29527;55.766;37.570;2023-10-19T08:00:12;98863.53;;;8.96;58.95
37792;BME280;29527;55.766;37.570;2023-10-19T08:02:41;98859.91;;;8.97;58.89
37792;BME280;29527;55.766;37.570;2023-10-19T08:05:08;98864.53;;;8.95;58.60
37792;BME280;29527;55.766;37.570;2023-10-19T08:07:34;98860.41;;;8.91;59.04
37792;BME280;29527;55.766;37.570;2023-10-19T08:10:00;98864.94;;;8.90;59.69
37792;BME280;29527;55.766;37.570;2023-10-19T08:12:26;98860.28;;;8.83;59.38
37792;BME280;29527;55.766;37.570;2023-10-19T08:14:54;98873.06;;;8.89;59.73
37792;BME280;29527;55.766;37.570;2023-10-19T08:17:21;98874.88;;;8.79;59.87
37792;BME280;29527;55.766;37.570;2023-10-19T08:19:47;98872.75;;;8.72;60.84
37792;BME280;29527;55.766;37.570;2023-10-19T08:22:13;98875.53;;;8.71;60.52
37792;BME280;29527;55.766;37.570;2023-10-19T08:24:40;98867.09;;;8.66;61.04
37792;BME280;29527;55.766;37.570;2023-10-19T08:27:09;98871.84;;;8.62;60.68
37792;BME280;29527;55.766;37.570;2023-10-19T08:29:37;98877.19;;;8.62;60.88
37792;BME280;29527;55.766;37.570;2023-10-19T08:32:02;98880.19;;;8.69;60.95
37792;BME280;29527;55.766;37.570;2023-10-19T08:34:28;98879.06;;;8.71;60.17
37792;BME280;29527;55.766;37.570;2023-10-19T08:36:55;98879.78;;;8.73;60.39
37792;BME280;29527;55.766;37.570;2023-10-19T08:39:21;98856.72;;;8.63;60.81
37792;BME280;29527;55.766;37.570;2023-10-19T08:41:50;98880.38;;;8.87;60.29
37792;BME280;29527;55.766;37.570;2023-10-19T08:44:19;98844.81;;;8.76;60.00
37792;BME280;29527;55.766;37.570;2023-10-19T08:46:45;98879.28;;;8.99;59.17
37792;BME280;29527;55.766;37.570;2023-10-19T08:49:14;98875.22;;;8.95;59.29
37792;BME280;29527;55.766;37.570;2023-10-19T08:51:43;98884.38;;;9.12;59.64
37792;BME280;29527;55.766;37.570;2023-10-19T08:54:11;98890.41;;;9.14;59.11
37792;BME280;29527;55.766;37.570;2023-10-19T08:56:37;98885.06;;;9.14;59.69
37792;BME280;29527;55.766;37.570;2023-10-19T08:59:04;98882.53;;;9.13;59.62
37792;BME280;29527;55.766;37.570;2023-10-19T09:01:31;98879.84;;;9.13;59.88
37792;BME280;29527;55.766;37.570;2023-10-19T09:04:00;98887.75;;;9.24;59.86
37792;BME280;29527;55.766;37.570;2023-10-19T09:06:26;98885.66;;;9.18;58.27
37792;BME280;29527;55.766;37.570;2023-10-19T09:08:55;98886.91;;;9.24;58.00
37792;BME280;29527;55.766;37.570;2023-10-19T09:11:23;98890.84;;;9.19;58.29
37792;BME280;29527;55.766;37.570;2023-10-19T09:13:51;98885.66;;;9.18;58.55
37792;BME280;29527;55.766;37.570;2023-10-19T09:16:21;98890.56;;;9.23;58.71
37792;BME280;29527;55.766;37.570;2023-10-19T09:18:48;98892.50;;;9.11;58.65
37792;BME280;29527;55.766;37.570;2023-10-19T09:21:18;98902.19;;;9.12;59.08
37792;BME280;29527;55.766;37.570;2023-10-19T09:23:51;98903.75;;;9.04;59.63
37792;BME280;29527;55.766;37.570;2023-10-19T09:26:17;98896.13;;;9.00;59.58
37792;BME280;29527;55.766;37.570;2023-10-19T09:28:46;98911.91;;;9.13;59.71
37792;BME280;29527;55.766;37.570;2023-10-19T09:31:12;98908.53;;;9.11;59.40
37792;BME280;29527;55.766;37.570;2023-10-19T09:33:43;98893.22;;;9.13;59.65
37792;BME280;29527;55.766;37.570;2023-10-19T09:36:10;98896.59;;;9.05;59.06
37792;BME280;29527;55.766;37.570;2023-10-19T09:38:49;98897.41;;;9.05;59.54
37792;BME280;29527;55.766;37.570;2023-10-19T09:41:18;98902.19;;;9.12;59.56
37792;BME280;29527;55.766;37.570;2023-10-19T09:43:46;98895.88;;;9.13;59.81
37792;BME280;29527;55.766;37.570;2023-10-19T09:46:14;98904.31;;;9.08;59.20
37792;BME280;29527;55.766;37.570;2023-10-19T09:48:47;98903.19;;;9.11;59.96
37792;BME280;29527;55.766;37.570;2023-10-19T09:51:18;98894.19;;;9.12;59.27
37792;BME280;29527;55.766;37.570;2023-10-19T09:53:49;98898.44;;;9.24;59.30
37792;BME280;29527;55.766;37.570;2023-10-19T09:56:21;98895.38;;;9.29;58.89
37792;BME280;29527;55.766;37.570;2023-10-19T09:58:55;98864.56;;;9.05;59.30
37792;BME280;29527;55.766;37.570;2023-10-19T10:01:23;98902.19;;;9.12;59.54
37792;BME280;29527;55.766;37.570;2023-10-19T10:03:50;98901.75;;;8.97;60.81
37792;BME280;29527;55.766;37.570;2023-10-19T10:06:28;98910.63;;;8.97;60.24
37792;BME280;29527;55.766;37.570;2023-10-19T10:08:55;98911.56;;;8.86;60.76
37792;BME280;29527;55.766;37.570;2023-10-19T10:11:26;98919.16;;;8.91;61.11
37792;BME280;29527;55.766;37.570;2023-10-19T10:13:54;98904.38;;;8.87;60.96
37792;BME280;29527;55.766;37.570;2023-10-19T10:16:28;98905.28;;;8.97;60.94
37792;BME280;29527;55.766;37.570;2023-10-19T10:18:57;98904.03;;;9.01;60.98
37792;BME280;29527;55.766;37.570;2023-10-19T10:21:26;98909.38;;;9.01;60.77
37792;BME280;29527;55.766;37.570;2023-10-19T10:23:56;98866.31;;;8.85;60.20
37792;BME280;29527;55.766;37.570;2023-10-19T10:26:28;98908.56;;;9.21;60.05
37792;BME280;29527;55.766;37.570;2023-10-19T10:31:45;98909.28;;;9.52;59.35
37792;BME280;29527;55.766;37.570;2023-10-19T10:34:57;98893.25;;;9.52;59.16
37792;BME280;29527;55.766;37.570;2023-10-19T10:39:29;98911.97;;;9.82;57.51
37792;BME280;29527;55.766;37.570;2023-10-19T10:42:01;98916.75;;;9.88;57.31
37792;BME280;29527;55.766;37.570;2023-10-19T10:44:46;98910.13;;;10.02;57.13
37792;BME280;29527;55.766;37.570;2023-10-19T10:47:22;98902.50;;;10.07;57.18
37792;BME280;29527;55.766;37.570;2023-10-19T10:52:34;98912.78;;;10.12;56.59
37792;BME280;29527;55.766;37.570;2023-10-19T10:57:33;98898.00;;;10.08;55.78
37792;BME280;29527;55.766;37.570;2023-10-19T11:00:17;98904.84;;;10.30;55.55
37792;BME280;29527;55.766;37.570;2023-10-19T11:02:59;98909.22;;;10.41;55.84
37792;BME280;29527;55.766;37.570;2023-10-19T11:05:25;98905.44;;;10.24;56.16
37792;BME280;29527;55.766;37.570;2023-10-19T11:08:14;98911.47;;;10.36;57.13
37792;BME280;29527;55.766;37.570;2023-10-19T11:10:42;98904.88;;;10.20;56.63
37792;BME280;29527;55.766;37.570;2023-10-19T11:13:12;98913.03;;;10.28;56.28
37792;BME280;29527;55.766;37.570;2023-10-19T11:15:46;98917.41;;;10.19;55.16
37792;BME280;29527;55.766;37.570;2023-10-19T11:18:31;98917.84;;;10.15;55.94
37792;BME280;29527;55.766;37.570;2023-10-19T11:20:59;98913.50;;;9.94;55.86
37792;BME280;29527;55.766;37.570;2023-10-19T11:23:48;98918.84;;;10.04;57.26
37792;BME280;29527;55.766;37.570;2023-10-19T11:26:20;98909.56;;;9.98;57.39
37792;BME280;29527;55.766;37.570;2023-10-19T11:28:46;98911.13;;;9.91;57.50
37792;BME280;29527;55.766;37.570;2023-10-19T11:31:21;98921.81;;;9.81;57.87
37792;BME280;29527;55.766;37.570;2023-10-19T11:33:52;98912.41;;;9.67;58.26
37792;BME280;29527;55.766;37.570;2023-10-19T11:36:20;98915.94;;;9.68;58.77
37792;BME280;29527;55.766;37.570;2023-10-19T11:38:48;98870.50;;;9.48;58.15
37792;BME280;29527;55.766;37.570;2023-10-19T11:41:15;98913.78;;;9.71;58.09
37792;BME280;29527;55.766;37.570;2023-10-19T11:43:43;98914.78;;;9.70;57.77
37792;BME280;29527;55.766;37.570;2023-10-19T11:46:09;98915.94;;;9.68;58.02
37792;BME280;29527;55.766;37.570;2023-10-19T11:48:37;98909.16;;;9.63;58.03
37792;BME280;29527;55.766;37.570;2023-10-19T11:51:03;98884.41;;;9.42;58.56
37792;BME280;29527;55.766;37.570;2023-10-19T11:53:33;98902.97;;;9.53;58.99
37792;BME280;29527;55.766;37.570;2023-10-19T11:56:01;98908.72;;;9.48;59.35
37792;BME280;29527;55.766;37.570;2023-10-19T11:58:30;98909.69;;;9.38;59.23
37792;BME280;29527;55.766;37.570;2023-10-19T12:00:58;98921.22;;;9.28;59.83
37792;BME280;29527;55.766;37.570;2023-10-19T12:03:24;98907.56;;;9.22;60.10
37792;BME280;29527;55.766;37.570;2023-10-19T12:05:51;98908.81;;;9.08;60.79
37792;BME280;29527;55.766;37.570;2023-10-19T12:08:18;98914.00;;;8.99;61.30
37792;BME280;29527;55.766;37.570;2023-10-19T12:10:44;98912.13;;;8.90;62.14
37792;BME280;29527;55.766;37.570;2023-10-19T12:13:09;98868.22;;;8.63;61.97
37792;BME280;29527;55.766;37.570;2023-10-19T12:15:35;98904.50;;;8.75;62.12
37792;BME280;29527;55.766;37.570;2023-10-19T12:18:01;98869.81;;;8.44;62.26
37792;BME280;29527;55.766;37.570;2023-10-19T12:20:31;98915.56;;;8.71;62.66
37792;BME280;29527;55.766;37.570;2023-10-19T12:22:57;98914.03;;;8.68;62.67
37792;BME280;29527;55.766;37.570;2023-10-19T12:25:25;98919.63;;;8.65;62.36
37792;BME280;29527;55.766;37.570;2023-10-19T12:28:00;98914.16;;;8.67;61.97
37792;BME280;29527;55.766;37.570;2023-10-19T12:30:26;98917.22;;;8.62;61.98
37792;BME280;29527;55.766;37.570;2023-10-19T12:32:59;98922.13;;;8.57;62.59
37792;BME280;29527;55.766;37.570;2023-10-19T12:35:25;98912.97;;;8.50;62.29
37792;BME280;29527;55.766;37.570;2023-10-19T12:38:08;98921.84;;;8.60;62.59
37792;BME280;29527;55.766;37.570;2023-10-19T12:40:42;98930.72;;;8.60;62.84
37792;BME280;29527;55.766;37.570;2023-10-19T12:43:08;98915.63;;;8.50;62.28
37792;BME280;29527;55.766;37.570;2023-10-19T12:45:36;98922.13;;;8.57;63.01
37792;BME280;29527;55.766;37.570;2023-10-19T12:48:06;98876.47;;;8.29;62.92
37792;BME280;29527;55.766;37.570;2023-10-19T12:50:34;98919.44;;;8.57;63.23
37792;BME280;29527;55.766;37.570;2023-10-19T12:52:59;98899.72;;;8.48;63.18
37792;BME280;29527;55.766;37.570;2023-10-19T12:55:25;98928.31;;;8.57;63.40
37792;BME280;29527;55.766;37.570;2023-10-19T12:57:59;98928.31;;;8.57;63.46
37792;BME280;29527;55.766;37.570;2023-10-19T13:00:32;98928.72;;;8.53;63.05
37792;BME280;29527;55.766;37.570;2023-10-19T13:03:07;98928.81;;;8.51;64.08
37792;BME280;29527;55.766;37.570;2023-10-19T13:05:34;98931.63;;;8.50;64.46
37792;BME280;29527;55.766;37.570;2023-10-19T13:08:01;98926.31;;;8.50;64.46
37792;BME280;29527;55.766;37.570;2023-10-19T13:10:30;98926.47;;;8.58;64.07
37792;BME280;29527;55.766;37.570;2023-10-19T13:13:04;98909.31;;;8.51;64.18
37792;BME280;29527;55.766;37.570;2023-10-19T13:15:35;98915.69;;;8.59;64.45
37792;BME280;29527;55.766;37.570;2023-10-19T13:18:05;98931.09;;;8.56;64.21
37792;BME280;29527;55.766;37.570;2023-10-19T13:20:35;98929.69;;;8.52;64.60